Lake Tahoe, CA

2:08 AM PDT on October 01, 2014 (GMT -0700)
Lake Tahoe | Change Station
CLOSE
Current Station
Airport
Location: South Lake Tahoe,
Elevation: 6263 ft
Nearby Weather Stations

Elev 6263 ft 38.90 °N, 120.00 °W | Updated 1 hour ago

Clear
Clear
50 °F
Feels Like 50 °F
N
7
Wind Variable Wind from Variable

Today
High -- | Low -- °F
--% Chance of Precip.
Yesterday
High -- | Low -- °F
Precip. -- in
6:56 AM 6:42 PM
Waxing Crescent, 45% visible
Pressure 29.94 in
Visibility 10.0 miles
Clouds Clear
Dew Point 30 °F
Humidity 46%
Rainfall 0.00 in
Snow Depth Not available.
UV 0 out of 12
Pollen 5.60 out of 12
Air Quality Not available.
Flu Activity Not available.
METAR KTVL 010753Z AUTO VRB06KT 10SM CLR 10/M01 A3009 RMK AO2 SLP139 T01001011 402000022

More Conditions Fewer Conditions

Pressure 29.94 in
Visibility 10.0 miles
Clouds Clear
Dew Point 30 °F
Humidity 46%
Rainfall 0.00 in
Snow Depth Not available.
UV 0 out of 12
Pollen 5.60 out of 12
Air Quality Not available.
Flu Activity Not available.
METAR KTVL 010753Z AUTO VRB06KT 10SM CLR 10/M01 A3009 RMK AO2 SLP139 T01001011 402000022

More Conditions Fewer Conditions

10-Day Weather Forecast

Almanac

Astronomy

Oct. 01, 2014 Rise Set
Actual Time 6:56 AM PDT 6:42 PM PDT
Civil Twilight 6:29 AM PDT 7:09 PM PDT
Nautical Twilight 5:58 AM PDT 7:39 PM PDT
Astronomical Twilight 5:27 AM PDT 8:11 PM PDT
Moon 1:58 PM PDT No Moon Set
Length of Visible Light 12h 39m
Length of Day
11h 46m
Tomorrow will be 2m 31s shorter.
Waxing Crescent, 45% of the Moon is Illuminated
Today
Waxing Crescent
Oct 1
First Quarter
Oct 8
Full
Oct 15
Last Quarter
Oct 23
New

Today's Extremes

State Highs State Lows

Community

WunderPhotos

Upload Photos

1,757,902 photos uploaded!

Nearby

Snow Depth

Station Depth Elevation
Independence Lake 0 in 8450 ft
Poison Flat 0 in 7900 ft
Tahoe City Cross 0 in 6750 ft
Ebbetts Pass 0 in 8700 ft
Sonora Pass 0 in 8800 ft

Earthquake Activity

City Distance Mag. Time & Date
East Foothills, California 138 miles 2.6 3:34 PM PDT
2014-09-30
Minimum magnitude displayed is 2.5.

Coastal Water Temperatures

Place Temperature
No Stations Reporting

Nearby Weather Stations